Aom Julia — 3FNQ3 — position and weather

sailwx.info

Track history (hours):
 
Tides and Currents Weather Stations Pressure Air Temp Water Temp Dewpoint Dewpoint Depression Visibility Wind Speed Wind Dir Waves Ship Positions

Aom Julia

Last reported at 2017-Nov-18 22:38 UTC. Time now 2017-Nov-24 05:49 UTC.
Position N 54°46' E 012°45'.

Length 225 m; draft 12.9 m.

Type: Cargo ship. MMSI: 355891000.

Date/timePositionNaut miles runAvg speedWind from/ knotsBaromVisibWave heightAir tempDewpointWater temp
2017-Nov-18 22:38N 54°46' E 012°45'211.9
2017-Nov-18 22:27N 54°45' E 012°41'1212.5
2017-Nov-18 21:31N 54°39' E 012°25'012.3
2017-Nov-18 21:30N 54°39' E 012°25'1010.0
2017-Nov-18 20:31N 54°31' E 012°14'010.0
2017-Nov-18 20:29N 54°30' E 012°14'611.5
2017-Nov-18 20:00N 54°25' E 012°10'612.5
2017-Nov-18 19:30N 54°25' E 011°59'1013.3
2017-Nov-18 18:44N 54°27' E 011°42'313.6
2017-Nov-18 18:29N 54°28' E 011°37'613.4
2017-Nov-18 18:00N 54°31' E 011°27'713.6
2017-Nov-18 17:30N 54°33' E 011°16'713.5
2017-Nov-18 17:00N 54°35' E 011°05'713.4
2017-Nov-18 16:30N 54°38' E 010°54'611.8
2017-Nov-18 16:00N 54°42' E 010°47'5 9.9
2017-Nov-18 15:31N 54°47' E 010°48'714.2
2017-Nov-18 15:01N 54°53' E 010°51'713.5
2017-Nov-18 14:30N 54°59' E 010°58'713.3
2017-Nov-18 14:00N 55°06' E 010°59'611.5
2017-Nov-18 13:30N 55°11' E 011°03'510.0
2017-Nov-18 13:00N 55°16' E 011°04'11410.6
2017-Nov-18 02:16N 57°08' E 011°37'412.4
2017-Nov-18 01:55N 57°12' E 011°34'512.2
2017-Nov-18 01:30N 57°17' E 011°31'612.1
2017-Nov-18 01:00N 57°23' E 011°27'611.8
2017-Nov-18 00:30N 57°28' E 011°23'612.1
2017-Nov-18 00:00N 57°32' E 011°15'612.4
2017-Nov-17 23:30N 57°36' E 011°06'612.7
2017-Nov-17 23:00N 57°40' E 010°56'613.1
2017-Nov-17 22:30N 57°42' E 010°45'2 4.9
2017-Nov-17 22:00N 57°42' E 010°40'0 0.1
2017-Nov-17 21:10N 57°42' E 010°40'0 0.0
2017-Nov-17 20:36N 57°42' E 010°40'0 0.0
2017-Nov-17 20:13N 57°42' E 010°40'0 0.0
2017-Nov-17 19:10N 57°42' E 010°40'0 0.1
2017-Nov-17 18:57N 57°42' E 010°40'0 0.6
2017-Nov-17 18:30N 57°42' E 010°41'3 5.2
2017-Nov-17 18:00N 57°43' E 010°45'3 6.6
2017-Nov-17 17:29N 57°46' E 010°48'511.0
2017-Nov-17 17:00N 57°49' E 010°40'612.3
2017-Nov-17 16:30N 57°50' E 010°29'713.0
2017-Nov-17 16:00N 57°50' E 010°16'33411.2
2017-Nov-16 10:11N 53°17' E 004°37'511.7
2017-Nov-16 09:44N 53°12' E 004°33'311.7
2017-Nov-16 09:27N 53°09' E 004°30'511.7
2017-Nov-16 09:00N 53°05' E 004°25'611.7
2017-Nov-16 08:30N 52°60' E 004°20'611.6
2017-Nov-16 08:00N 52°55' E 004°16'611.6
2017-Nov-16 07:30N 52°50' E 004°11'611.5
2017-Nov-16 07:00N 52°45' E 004°06'611.5
2017-Nov-16 06:30N 52°41' E 003°59'611.8
2017-Nov-16 06:00N 52°37' E 003°52'612.1
2017-Nov-16 05:30N 52°32' E 003°45'612.2
2017-Nov-16 05:00N 52°28' E 003°38'7813.7
2017-Nov-15 23:19N 51°30' E 002°13'414.5
2017-Nov-15 23:01N 51°27' E 002°08'714.5
2017-Nov-15 22:31N 51°22' E 002°01'714.6
2017-Nov-15 22:01N 51°16' E 001°53'714.7
2017-Nov-15 21:31N 51°11' E 001°46'714.7
2017-Nov-15 21:01N 51°05' E 001°39'714.4
2017-Nov-15 20:31N 50°59' E 001°32'713.8
2017-Nov-15 20:00N 50°53' E 001°27'713.3
2017-Nov-15 19:30N 50°46' E 001°24'4812.2
2017-Nov-15 15:35N 50°23' E 000°18'112.1
2017-Nov-15 15:29N 50°22' E 000°16'612.0
2017-Nov-15 15:00N 50°21' E 000°07'611.8
2017-Nov-15 14:30N 50°19' W 000°01'611.5
2017-Nov-15 14:00N 50°18' W 000°10'611.2
2017-Nov-15 13:30N 50°16' W 000°19'610.9
2017-Nov-15 12:57N 50°15' W 000°28'510.7
2017-Nov-15 12:30N 50°13' W 000°35'510.5
2017-Nov-15 11:59N 50°12' W 000°43'510.3
2017-Nov-15 11:30N 50°11' W 000°51'510.4
2017-Nov-15 11:00N 50°09' W 000°59'510.6
2017-Nov-15 10:30N 50°08' W 001°07'611.1
2017-Nov-15 10:00N 50°07' W 001°15'611.7
2017-Nov-15 09:30N 50°05' W 001°24'612.4
2017-Nov-15 09:00N 50°03' W 001°33'713.0
2017-Nov-15 08:30N 50°01' W 001°43'713.8
2017-Nov-15 08:00N 49°59' W 001°53'714.3
2017-Nov-15 07:31N 49°57' W 002°04'714.6
2017-Nov-15 07:00N 49°56' W 002°15'1514.6
2017-Nov-15 05:58N 49°52' W 002°38'1114.4
2017-Nov-15 05:12N 49°49' W 002°54'514.1
2017-Nov-15 04:49N 49°47' W 003°02'414.2
2017-Nov-15 04:30N 49°45' W 003°08'814.1
2017-Nov-15 03:55N 49°41' W 003°19'5113.8
2017-Nov-15 00:15N 49°15' W 004°26'913.3
2017-Nov-14 23:35N 49°10' W 004°37'113.0
2017-Nov-14 23:28N 49°09' W 004°39'1213.0
2017-Nov-14 22:32N 49°03' W 004°55'312.9
2017-Nov-14 22:18N 49°01' W 004°59'612.4
2017-Nov-14 21:49N 48°59' W 005°07'612.1
2017-Nov-14 21:21N 48°55' W 005°14'511.9
2017-Nov-14 20:58N 48°53' W 005°20'611.8
2017-Nov-14 20:29N 48°50' W 005°28'712.5
2017-Nov-14 19:57N 48°47' W 005°36'713.0
2017-Nov-14 19:23N 48°41' W 005°42'612.9
2017-Nov-14 18:57N 48°36' W 005°47'613.0
2017-Nov-14 18:30N 48°31' W 005°52'1513.0
2017-Nov-14 17:23N 48°19' W 006°04'513.0
2017-Nov-14 17:00N 48°15' W 006°08'713.1
2017-Nov-14 16:28N 48°09' W 006°14'1213.4
2017-Nov-14 15:37N 47°59' W 006°23'613.7
2017-Nov-14 15:13N 47°55' W 006°28'413.7
2017-Nov-14 14:55N 47°51' W 006°31'1214.0
2017-Nov-14 14:05N 47°42' W 006°41'214.3
2017-Nov-14 13:58N 47°41' W 006°43'914.0
2017-Nov-14 13:17N 47°33' W 006°50'814.2
2017-Nov-14 12:41N 47°26' W 006°58'614.1
2017-Nov-14 12:16N 47°21' W 007°03'1314.0
2017-Nov-14 11:22N 47°11' W 007°14'  
Track history (hours):
 
Tides and Currents Weather Stations Pressure Air Temp Water Temp Dewpoint Dewpoint Depression Visibility Wind Speed Wind Dir Waves Ship Positions

Aom Julia

Last reported at 2017-Nov-18 22:38 UTC. Time now 2017-Nov-24 05:49 UTC.
Position N 54°46' E 012°45'.

Length 225 m; draft 12.9 m.

Type: Cargo ship. MMSI: 355891000.

Date/timePositionNaut miles runAvg speedWind from/ knotsBaromVisibWave heightAir tempDewpointWater temp
2017-Nov-18 22:38N 54°46' E 012°45'211.9
2017-Nov-18 22:27N 54°45' E 012°41'1212.5
2017-Nov-18 21:31N 54°39' E 012°25'012.3
2017-Nov-18 21:30N 54°39' E 012°25'1010.0
2017-Nov-18 20:31N 54°31' E 012°14'010.0
2017-Nov-18 20:29N 54°30' E 012°14'611.5
2017-Nov-18 20:00N 54°25' E 012°10'612.5
2017-Nov-18 19:30N 54°25' E 011°59'1013.3
2017-Nov-18 18:44N 54°27' E 011°42'313.6
2017-Nov-18 18:29N 54°28' E 011°37'613.4
2017-Nov-18 18:00N 54°31' E 011°27'713.6
2017-Nov-18 17:30N 54°33' E 011°16'713.5
2017-Nov-18 17:00N 54°35' E 011°05'713.4
2017-Nov-18 16:30N 54°38' E 010°54'611.8
2017-Nov-18 16:00N 54°42' E 010°47'5 9.9
2017-Nov-18 15:31N 54°47' E 010°48'714.2
2017-Nov-18 15:01N 54°53' E 010°51'713.5
2017-Nov-18 14:30N 54°59' E 010°58'713.3
2017-Nov-18 14:00N 55°06' E 010°59'611.5
2017-Nov-18 13:30N 55°11' E 011°03'510.0
2017-Nov-18 13:00N 55°16' E 011°04'11410.6
2017-Nov-18 02:16N 57°08' E 011°37'412.4
2017-Nov-18 01:55N 57°12' E 011°34'512.2
2017-Nov-18 01:30N 57°17' E 011°31'612.1
2017-Nov-18 01:00N 57°23' E 011°27'611.8
2017-Nov-18 00:30N 57°28' E 011°23'612.1
2017-Nov-18 00:00N 57°32' E 011°15'612.4
2017-Nov-17 23:30N 57°36' E 011°06'612.7
2017-Nov-17 23:00N 57°40' E 010°56'613.1
2017-Nov-17 22:30N 57°42' E 010°45'2 4.9
2017-Nov-17 22:00N 57°42' E 010°40'0 0.1
2017-Nov-17 21:10N 57°42' E 010°40'0 0.0
2017-Nov-17 20:36N 57°42' E 010°40'0 0.0
2017-Nov-17 20:13N 57°42' E 010°40'0 0.0
2017-Nov-17 19:10N 57°42' E 010°40'0 0.1
2017-Nov-17 18:57N 57°42' E 010°40'0 0.6
2017-Nov-17 18:30N 57°42' E 010°41'3 5.2
2017-Nov-17 18:00N 57°43' E 010°45'3 6.6
2017-Nov-17 17:29N 57°46' E 010°48'511.0
2017-Nov-17 17:00N 57°49' E 010°40'612.3
2017-Nov-17 16:30N 57°50' E 010°29'713.0
2017-Nov-17 16:00N 57°50' E 010°16'33411.2
2017-Nov-16 10:11N 53°17' E 004°37'511.7
2017-Nov-16 09:44N 53°12' E 004°33'311.7
2017-Nov-16 09:27N 53°09' E 004°30'511.7
2017-Nov-16 09:00N 53°05' E 004°25'611.7
2017-Nov-16 08:30N 52°60' E 004°20'611.6
2017-Nov-16 08:00N 52°55' E 004°16'611.6
2017-Nov-16 07:30N 52°50' E 004°11'611.5
2017-Nov-16 07:00N 52°45' E 004°06'611.5
2017-Nov-16 06:30N 52°41' E 003°59'611.8
2017-Nov-16 06:00N 52°37' E 003°52'612.1
2017-Nov-16 05:30N 52°32' E 003°45'612.2
2017-Nov-16 05:00N 52°28' E 003°38'7813.7
2017-Nov-15 23:19N 51°30' E 002°13'414.5
2017-Nov-15 23:01N 51°27' E 002°08'714.5
2017-Nov-15 22:31N 51°22' E 002°01'714.6
2017-Nov-15 22:01N 51°16' E 001°53'714.7
2017-Nov-15 21:31N 51°11' E 001°46'714.7
2017-Nov-15 21:01N 51°05' E 001°39'714.4
2017-Nov-15 20:31N 50°59' E 001°32'713.8
2017-Nov-15 20:00N 50°53' E 001°27'713.3
2017-Nov-15 19:30N 50°46' E 001°24'4812.2
2017-Nov-15 15:35N 50°23' E 000°18'112.1
2017-Nov-15 15:29N 50°22' E 000°16'612.0
2017-Nov-15 15:00N 50°21' E 000°07'611.8
2017-Nov-15 14:30N 50°19' W 000°01'611.5
2017-Nov-15 14:00N 50°18' W 000°10'611.2
2017-Nov-15 13:30N 50°16' W 000°19'610.9
2017-Nov-15 12:57N 50°15' W 000°28'510.7
2017-Nov-15 12:30N 50°13' W 000°35'510.5
2017-Nov-15 11:59N 50°12' W 000°43'510.3
2017-Nov-15 11:30N 50°11' W 000°51'510.4
2017-Nov-15 11:00N 50°09' W 000°59'510.6
2017-Nov-15 10:30N 50°08' W 001°07'611.1
2017-Nov-15 10:00N 50°07' W 001°15'611.7
2017-Nov-15 09:30N 50°05' W 001°24'612.4
2017-Nov-15 09:00N 50°03' W 001°33'713.0
2017-Nov-15 08:30N 50°01' W 001°43'713.8
2017-Nov-15 08:00N 49°59' W 001°53'714.3
2017-Nov-15 07:31N 49°57' W 002°04'714.6
2017-Nov-15 07:00N 49°56' W 002°15'1514.6
2017-Nov-15 05:58N 49°52' W 002°38'1114.4
2017-Nov-15 05:12N 49°49' W 002°54'514.1
2017-Nov-15 04:49N 49°47' W 003°02'414.2
2017-Nov-15 04:30N 49°45' W 003°08'814.1
2017-Nov-15 03:55N 49°41' W 003°19'5113.8
2017-Nov-15 00:15N 49°15' W 004°26'913.3
2017-Nov-14 23:35N 49°10' W 004°37'113.0
2017-Nov-14 23:28N 49°09' W 004°39'1213.0
2017-Nov-14 22:32N 49°03' W 004°55'312.9
2017-Nov-14 22:18N 49°01' W 004°59'612.4
2017-Nov-14 21:49N 48°59' W 005°07'612.1
2017-Nov-14 21:21N 48°55' W 005°14'511.9
2017-Nov-14 20:58N 48°53' W 005°20'611.8
2017-Nov-14 20:29N 48°50' W 005°28'712.5
2017-Nov-14 19:57N 48°47' W 005°36'713.0
2017-Nov-14 19:23N 48°41' W 005°42'612.9
2017-Nov-14 18:57N 48°36' W 005°47'613.0
2017-Nov-14 18:30N 48°31' W 005°52'1513.0
2017-Nov-14 17:23N 48°19' W 006°04'513.0
2017-Nov-14 17:00N 48°15' W 006°08'713.1
2017-Nov-14 16:28N 48°09' W 006°14'1213.4
2017-Nov-14 15:37N 47°59' W 006°23'613.7
2017-Nov-14 15:13N 47°55' W 006°28'413.7
2017-Nov-14 14:55N 47°51' W 006°31'1214.0
2017-Nov-14 14:05N 47°42' W 006°41'214.3
2017-Nov-14 13:58N 47°41' W 006°43'914.0
2017-Nov-14 13:17N 47°33' W 006°50'814.2
2017-Nov-14 12:41N 47°26' W 006°58'614.1
2017-Nov-14 12:16N 47°21' W 007°03'1314.0
2017-Nov-14 11:22N 47°11' W 007°14'  

Dump ship's entire track history